This is the latest recevied weather packets stored in our database for station/object M0TUM-1. If no packets are shown the sender has not sent any weather packets the latest 10 day(s).
| Time | Temp. | Humidity | Pressure | Rain* | Wind** | Luminosity | Snow |
|---|---|---|---|---|---|---|---|
| 1777729469 | 22.22° C | 42% | 1015.1 hPa | 0 mm | - | 618 W/m² | - |
| 1777729166 | 21.67° C | 43% | 1015.1 hPa | 0 mm | - | 641 W/m² | - |
| 1777728862 | 20.56° C | 45% | 1015.4 hPa | 0 mm | - | 482 W/m² | - |
| 1777728560 | 21.11° C | 46% | 1015.4 hPa | 0 mm | - | 245 W/m² | - |
| 1777728256 | 20.56° C | 44% | 1015.2 hPa | 0 mm | - | 487 W/m² | - |
| 1777727954 | 20.56° C | 44% | 1015.6 hPa | 0 mm | - | 224 W/m² | - |
| 1777727650 | 21.11° C | 43% | 1015.4 hPa | 0 mm | - | 497 W/m² | - |
| 1777727348 | 21.11° C | 43% | 1015.4 hPa | 0 mm | - | 344 W/m² | - |
| 1777727045 | 21.67° C | 42% | 1015.4 hPa | 0 mm | - | 666 W/m² | - |
| 1777726742 | 21.11° C | 44% | 1015.4 hPa | 0 mm | - | 676 W/m² | - |
| 1777726439 | 21.11° C | 45% | 1015.5 hPa | 0 mm | - | 692 W/m² | - |
| 1777726135 | 20.56° C | 47% | 1015.8 hPa | 0 mm | - | 452 W/m² | - |
| 1777725833 | 21.11° C | 46% | 1015.9 hPa | 0 mm | - | 264 W/m² | - |
| 1777725530 | 21.11° C | 45% | 1015.8 hPa | 0 mm | - | 481 W/m² | - |
| 1777725227 | 21.11° C | 46% | 1015.8 hPa | 0 mm | - | 649 W/m² | - |
| 1777724925 | 20.56° C | 48% | 1015.9 hPa | 0 mm | - | 691 W/m² | - |
| 1777724620 | 21.11° C | 47% | 1015.8 hPa | 0 mm | - | 695 W/m² | - |
| 1777724319 | 20° C | 49% | 1016.1 hPa | 0 mm | - | 658 W/m² | - |
| 1777724016 | 20.56° C | 48% | 1015.9 hPa | 0 mm | - | 678 W/m² | - |
| 1777723713 | 20° C | 48% | 1016.2 hPa | 0 mm | - | 674 W/m² | - |
| 1777723409 | 20.56° C | 48% | 1015.9 hPa | 0 mm | - | 665 W/m² | - |
| 1777723107 | 21.11° C | 47% | 1016.1 hPa | 0 mm | - | 190 W/m² | - |
| 1777722804 | 20.56° C | 48% | 1016 hPa | 0 mm | - | 635 W/m² | - |
| 1777722500 | 20° C | 48% | 1016.2 hPa | 0 mm | - | 649 W/m² | - |
| 1777722197 | 20° C | 50% | 1016.2 hPa | 0 mm | - | 592 W/m² | - |
* Rain latest hour (hover to see other rain measurements)
** Current wind speed in m/s (hover to see current wind gust speed)